Time;durP1;ratioP1;P1;durP2;ratioP2;P2;SDS_P1;SDS_P2;PMS_P1;PMS_P2;Temp;Humidity;BMP_temperature;BMP_pressure;BME280_temperature;BME280_humidity;BME280_pressure;Samples;Min_cycle;Max_cycle;Signal;HPM_P1;HPM_P2
2021/09/27 00:00:53;;;;;;;;;;;;;;;21.43;88.09;100796.63;7285848;19;152794;-53
2021/09/27 00:03:20;;;;;;;;;;;;;;;21.41;88.59;100791.28;7288006;19;151738;-51
2021/09/27 00:05:47;;;;;;;;;;;;;;;21.41;88.75;100780.06;7290260;19;153544;-52
2021/09/27 00:08:15;;;;;;;;;;;;;;;21.40;88.22;100778.38;7285762;19;153904;-52
2021/09/27 00:10:44;;;;;;;;;;;;;;;21.42;88.66;100775.28;7287953;19;152529;-51
2021/09/27 00:13:11;;;;;;;;;;;;;;;21.40;88.62;100771.94;7296114;19;152950;-52
2021/09/27 00:15:40;;;;;;;;;;;;;;;21.39;88.90;100768.31;7288681;19;151873;-52
2021/09/27 00:18:08;;;;;;;;;;;;;;;21.45;88.66;100771.81;7288615;19;152192;-51
2021/09/27 00:20:37;;;;;;;;;;;;;;;21.44;88.30;100775.78;7284818;19;154037;-51
2021/09/27 00:23:04;;;;;;;;;;;;;;;21.43;88.37;100774.13;7284555;19;152383;-52
2021/09/27 00:25:31;;;;;;;;;;;;;;;21.42;88.86;100766.84;7287294;19;152639;-52
2021/09/27 00:27:58;;;;;;;;;;;;;;;21.42;88.85;100755.59;7286973;19;155383;-52
2021/09/27 00:30:25;;;;;;;;;;;;;;;21.42;88.87;100749.97;7288505;19;151724;-52
2021/09/27 00:32:52;;;;;;;;;;;;;;;21.41;88.46;100751.94;7286082;19;152108;-53
2021/09/27 00:35:21;;;;;;;;;;;;;;;21.41;88.47;100753.94;7292256;19;153802;-52
2021/09/27 00:37:48;;;;;;;;;;;;;;;21.41;88.47;100753.94;7288222;19;153332;-53
2021/09/27 00:40:18;;;;;;;;;;;;;;;21.41;88.85;100753.94;7285673;19;153567;-53
2021/09/27 00:42:46;;;;;;;;;;;;;;;21.40;88.38;100755.06;7288585;19;151734;-52
2021/09/27 00:45:14;;;;;;;;;;;;;;;21.41;89.01;100749.13;7285673;19;151792;-52
2021/09/27 00:47:41;;;;;;;;;;;;;;;21.41;88.84;100753.94;7287369;19;152172;-52
2021/09/27 00:50:09;;;;;;;;;;;;;;;21.42;89.12;100745.19;7286098;19;152011;-52
2021/09/27 00:52:36;;;;;;;;;;;;;;;21.42;88.69;100750.81;7280717;19;151879;-53
2021/09/27 00:55:06;;;;;;;;;;;;;;;21.43;88.92;100746.84;7292013;19;152618;-52
2021/09/27 00:57:32;;;;;;;;;;;;;;;21.42;88.88;100731.13;7287639;19;155279;-52
2021/09/27 00:59:59;;;;;;;;;;;;;;;21.42;88.95;100730.28;7286544;19;153407;-52
2021/09/27 01:02:26;;;;;;;;;;;;;;;21.43;89.38;100727.19;7287438;19;151889;-52
2021/09/27 01:04:53;;;;;;;;;;;;;;;21.43;89.21;100721.56;7286319;19;152579;-52
2021/09/27 01:07:28;;;;;;;;;;;;;;;21.43;89.47;100715.94;7284863;19;153541;-53
2021/09/27 01:10:07;;;;;;;;;;;;;;;21.44;89.38;100716.75;7287368;19;151897;-53
2021/09/27 01:12:54;;;;;;;;;;;;;;;21.42;89.38;100705.84;7284581;19;152723;-51
2021/09/27 01:15:25;;;;;;;;;;;;;;;21.47;89.50;100702.06;7284624;19;152467;-52
2021/09/27 01:18:06;;;;;;;;;;;;;;;21.46;89.46;100695.59;7293136;19;151914;-52
2021/09/27 01:20:42;;;;;;;;;;;;;;;21.45;89.39;100679.88;7285388;19;152335;-52
2021/09/27 01:23:12;;;;;;;;;;;;;;;21.46;89.49;100683.53;7283796;19;152161;-52
2021/09/27 01:25:48;;;;;;;;;;;;;;;21.46;89.60;100680.72;7283419;19;153281;-52
2021/09/27 01:28:18;;;;;;;;;;;;;;;21.47;89.68;100685.19;7285510;19;152608;-52
2021/09/27 01:30:54;;;;;;;;;;;;;;;21.47;89.81;100685.19;7284112;19;152085;-52
2021/09/27 01:33:27;;;;;;;;;;;;;;;21.47;89.42;100685.19;7287708;19;152790;-51
2021/09/27 01:36:01;;;;;;;;;;;;;;;21.46;89.74;100683.53;7285790;19;153218;-52
2021/09/27 01:38:31;;;;;;;;;;;;;;;21.46;89.65;100666.66;7285647;19;152004;-52
2021/09/27 01:41:01;;;;;;;;;;;;;;;21.46;89.81;100666.66;7292694;19;153137;-53
2021/09/27 01:43:37;;;;;;;;;;;;;;;21.46;89.54;100656.25;7286347;19;151866;-52
2021/09/27 01:46:10;;;;;;;;;;;;;;;21.47;89.38;100657.09;7286072;19;152056;-52
2021/09/27 01:48:46;;;;;;;;;;;;;;;21.49;89.49;100643.53;7285536;19;154261;-52
2021/09/27 01:51:18;;;;;;;;;;;;;;;21.48;89.43;100636.25;7286036;19;152208;-51
2021/09/27 01:53:51;;;;;;;;;;;;;;;21.49;89.73;100632.28;7286054;19;152581;-52
2021/09/27 01:56:23;;;;;;;;;;;;;;;21.48;89.61;100641.88;7283463;19;153196;-52
2021/09/27 01:59:02;;;;;;;;;;;;;;;21.49;89.36;100635.09;7283701;19;152053;-53
2021/09/27 02:01:38;;;;;;;;;;;;;;;21.47;89.68;100635.44;7283143;19;155450;-52
2021/09/27 02:04:10;;;;;;;;;;;;;;;21.47;89.65;100632.63;7302908;19;154239;-53
2021/09/27 02:06:41;;;;;;;;;;;;;;;21.48;89.63;100633.44;7297939;19;153319;-51
2021/09/27 02:09:14;;;;;;;;;;;;;;;21.47;89.44;100629.81;7298919;19;153843;-52
2021/09/27 02:11:43;;;;;;;;;;;;;;;21.48;89.88;100623.03;7299094;19;151920;-52
2021/09/27 02:14:13;;;;;;;;;;;;;;;21.49;89.54;100616.25;7300176;19;152595;-53
2021/09/27 02:16:50;;;;;;;;;;;;;;;21.48;89.45;100614.59;7298602;19;153845;-52
2021/09/27 02:19:26;;;;;;;;;;;;;;;21.47;89.93;100612.13;7299654;19;151797;-52
2021/09/27 02:21:56;;;;;;;;;;;;;;;21.48;89.80;100611.78;7298783;19;153347;-52
2021/09/27 02:24:26;;;;;;;;;;;;;;;21.49;89.56;100607.81;7296363;19;152242;-52
2021/09/27 02:26:53;;;;;;;;;;;;;;;21.48;89.98;100609.00;7307263;19;151875;-52
2021/09/27 02:29:21;;;;;;;;;;;;;;;21.47;89.77;100610.13;7295558;19;153683;-51
2021/09/27 02:31:48;;;;;;;;;;;;;;;21.47;89.90;100612.94;7297011;19;152226;-53
2021/09/27 02:34:19;;;;;;;;;;;;;;;21.48;89.58;100606.19;7299809;19;152980;-52
2021/09/27 02:36:51;;;;;;;;;;;;;;;21.46;89.52;100602.84;7298079;19;154353;-52
2021/09/27 02:39:25;;;;;;;;;;;;;;;21.47;89.75;100601.69;7299156;19;151720;-52
2021/09/27 02:41:53;;;;;;;;;;;;;;;21.49;89.55;100590.94;7298535;19;153634;-52
2021/09/27 02:44:20;;;;;;;;;;;;;;;21.49;89.87;100582.50;7295556;19;153943;-52
2021/09/27 02:46:55;;;;;;;;;;;;;;;21.49;89.77;100571.28;7297287;19;152192;-51
2021/09/27 02:49:27;;;;;;;;;;;;;;;21.49;89.68;100574.06;7304897;19;152376;-52
2021/09/27 02:51:55;;;;;;;;;;;;;;;21.47;89.60;100559.53;7295632;19;152445;-50
2021/09/27 02:54:32;;;;;;;;;;;;;;;21.50;89.60;100567.31;7297465;19;153033;-52
2021/09/27 02:57:11;;;;;;;;;;;;;;;21.49;89.45;100554.41;7296140;19;153527;-53
2021/09/27 02:59:40;;;;;;;;;;;;;;;21.48;89.69;100552.78;7297080;19;151990;-52
2021/09/27 03:02:17;;;;;;;;;;;;;;;21.49;89.61;100540.34;7298341;19;153279;-52
2021/09/27 03:04:53;;;;;;;;;;;;;;;21.49;89.90;100539.50;7297513;19;153489;-53
2021/09/27 03:07:25;;;;;;;;;;;;;;;21.48;89.39;100543.50;7298762;19;151949;-52
2021/09/27 03:09:55;;;;;;;;;;;;;;;21.47;89.73;100514.56;7302025;19;153246;-52
2021/09/27 03:12:25;;;;;;;;;;;;;;;21.47;89.89;100511.75;7296983;19;152027;-53
2021/09/27 03:15:01;;;;;;;;;;;;;;;21.48;89.94;100506.97;7293902;19;152736;-52
2021/09/27 03:17:34;;;;;;;;;;;;;;;21.48;90.13;100464.81;7288048;19;153478;-52
2021/09/27 03:20:10;;;;;;;;;;;;;;;21.47;89.84;100461.16;7290844;19;152602;-53
2021/09/27 03:22:57;;;;;;;;;;;;;;;21.47;90.03;100454.72;7289177;19;152086;-53
2021/09/27 03:25:33;;;;;;;;;;;;;;;21.47;90.06;100426.59;7287108;19;154181;-51
2021/09/27 03:28:14;;;;;;;;;;;;;;;21.47;90.12;100421.81;7286355;19;151711;-52
2021/09/27 03:30:41;;;;;;;;;;;;;;;21.46;90.25;100396.81;7289387;19;152932;-52
2021/09/27 03:33:08;;;;;;;;;;;;;;;21.46;90.05;100420.16;7293611;19;153914;-52
2021/09/27 03:35:44;;;;;;;;;;;;;;;21.46;90.10;100431.38;7289345;19;153357;-52
2021/09/27 03:38:12;;;;;;;;;;;;;;;21.45;90.33;100440.97;7288697;19;152299;-52
2021/09/27 03:40:50;;;;;;;;;;;;;;;21.47;90.09;100458.34;7289729;19;151923;-52
2021/09/27 03:43:20;;;;;;;;;;;;;;;21.46;90.49;100470.75;7290118;19;152962;-52
2021/09/27 03:45:54;;;;;;;;;;;;;;;21.47;90.77;100482.81;7288484;19;154162;-51
2021/09/27 03:48:27;;;;;;;;;;;;;;;21.46;90.87;100481.97;7289814;19;152033;-52
2021/09/27 03:51:01;;;;;;;;;;;;;;;21.47;90.37;100478.03;7289611;19;151719;-51
2021/09/27 03:53:28;;;;;;;;;;;;;;;21.45;90.76;100471.88;7285068;19;154108;-52
2021/09/27 03:55:58;;;;;;;;;;;;;;;21.46;90.87;100481.97;7296945;19;151750;-51
2021/09/27 03:58:29;;;;;;;;;;;;;;;21.45;90.31;100474.69;7286450;19;154032;-51
2021/09/27 04:00:59;;;;;;;;;;;;;;;21.45;90.89;100460.63;7287483;19;151604;-52
2021/09/27 04:03:36;;;;;;;;;;;;;;;21.45;90.49;100448.56;7289956;19;152741;-52
2021/09/27 04:06:23;;;;;;;;;;;;;;;21.45;90.51;100445.75;7287799;19;152226;-53
2021/09/27 04:08:52;;;;;;;;;;;;;;;21.44;91.00;100447.72;7287567;19;151756;-52
2021/09/27 04:11:29;;;;;;;;;;;;;;;21.43;90.82;100437.66;7287101;19;153500;-51
2021/09/27 04:14:05;;;;;;;;;;;;;;;21.44;90.83;100438.50;7283849;19;153118;-52
2021/09/27 04:16:41;;;;;;;;;;;;;;;21.43;90.80;100443.28;7286707;19;151634;-51
2021/09/27 04:19:17;;;;;;;;;;;;;;;21.43;90.84;100448.09;7292645;19;152727;-51
2021/09/27 04:21:53;;;;;;;;;;;;;;;21.44;90.91;100432.88;7288476;19;151788;-53
2021/09/27 04:24:28;;;;;;;;;;;;;;;21.46;90.78;100431.38;7289615;19;152714;-52
2021/09/27 04:26:58;;;;;;;;;;;;;;;21.44;90.52;100413.22;7284596;19;153405;-52
2021/09/27 04:29:28;;;;;;;;;;;;;;;21.45;90.57;100412.84;7288670;19;152213;-52
2021/09/27 04:32:02;;;;;;;;;;;;;;;21.46;90.99;100408.91;7285997;19;151950;-52
2021/09/27 04:34:31;;;;;;;;;;;;;;;21.46;90.94;100391.19;7285271;19;152566;-53
2021/09/27 04:36:59;;;;;;;;;;;;;;;21.46;90.51;100385.59;7287805;19;151966;-52
2021/09/27 04:39:28;;;;;;;;;;;;;;;21.46;90.72;100383.59;7286793;19;153435;-52
2021/09/27 04:42:01;;;;;;;;;;;;;;;21.49;90.79;100377.31;7293259;19;153798;-51
2021/09/27 04:44:31;;;;;;;;;;;;;;;21.47;90.86;100370.38;7286434;19;151822;-52
2021/09/27 04:47:01;;;;;;;;;;;;;;;21.47;90.45;100359.97;7286496;19;152203;-52
2021/09/27 04:49:31;;;;;;;;;;;;;;;21.52;90.79;100359.81;7288155;19;151602;-52
2021/09/27 04:52:05;;;;;;;;;;;;;;;21.51;90.79;100348.88;7287201;19;151912;-52
2021/09/27 04:54:31;;;;;;;;;;;;;;;21.52;90.22;100351.38;7286616;19;154138;-52
2021/09/27 04:57:08;;;;;;;;;;;;;;;21.48;90.37;100346.75;7287572;19;151834;-52
2021/09/27 04:59:44;;;;;;;;;;;;;;;21.48;90.34;100336.34;7286918;19;152899;-51
2021/09/27 05:02:30;;;;;;;;;;;;;;;21.46;90.40;100326.56;7286797;19;153426;-52
2021/09/27 05:05:00;;;;;;;;;;;;;;;21.46;90.56;100318.97;7293539;19;151876;-52
2021/09/27 05:07:36;;;;;;;;;;;;;;;21.45;90.71;100324.91;7286705;19;153918;-53
2021/09/27 05:10:12;;;;;;;;;;;;;;;21.45;90.88;100324.91;7287459;19;151882;-52
2021/09/27 05:12:47;;;;;;;;;;;;;;;21.45;90.58;100319.28;7286839;19;152568;-52
2021/09/27 05:15:23;;;;;;;;;;;;;;;21.45;90.65;100320.09;7286248;19;153374;-51
2021/09/27 05:17:51;;;;;;;;;;;;;;;21.47;90.54;100314.16;7286838;19;152232;-52
2021/09/27 05:20:24;;;;;;;;;;;;;;;21.46;90.30;100301.25;7287252;19;151987;-52
2021/09/27 05:22:54;;;;;;;;;;;;;;;21.47;90.65;100302.94;7284642;19;153548;-52
2021/09/27 05:25:31;;;;;;;;;;;;;;;21.47;90.57;100303.75;7294845;19;152082;-53
2021/09/27 05:28:17;;;;;;;;;;;;;;;21.46;90.53;100302.09;7286584;19;153392;-52
2021/09/27 05:30:56;;;;;;;;;;;;;;;21.46;90.67;100309.69;7285155;19;151907;-52
2021/09/27 05:33:26;;;;;;;;;;;;;;;21.45;90.67;100292.00;7285409;19;151878;-52
2021/09/27 05:35:55;;;;;;;;;;;;;;;21.43;90.23;100297.16;7285742;19;153816;-52
2021/09/27 05:38:32;;;;;;;;;;;;;;;21.43;90.63;100297.16;7283734;19;151898;-52
2021/09/27 05:41:07;;;;;;;;;;;;;;;21.44;90.84;100279.09;7286658;19;153980;-51
2021/09/27 05:43:37;;;;;;;;;;;;;;;21.43;90.33;100269.03;7285953;19;153898;-52
2021/09/27 05:46:05;;;;;;;;;;;;;;;21.47;90.44;100263.56;7285993;19;151549;-51
2021/09/27 05:48:33;;;;;;;;;;;;;;;21.44;90.67;100270.66;7291825;19;153158;-52
2021/09/27 05:51:20;;;;;;;;;;;;;;;21.43;90.71;100259.78;7286477;19;152049;-53
2021/09/27 05:53:54;;;;;;;;;;;;;;;21.43;90.80;100256.97;7283899;19;153064;-52
2021/09/27 05:56:24;;;;;;;;;;;;;;;21.42;90.71;100250.50;7282708;19;154292;-51
2021/09/27 05:58:52;;;;;;;;;;;;;;;21.41;91.13;100248.84;7284182;19;152557;-52
2021/09/27 06:01:38;;;;;;;;;;;;;;;21.42;91.04;100233.66;7286627;19;152659;-52
2021/09/27 06:04:23;;;;;;;;;;;;;;;21.41;90.83;100233.97;7283418;19;152046;-51
2021/09/27 06:06:58;;;;;;;;;;;;;;;21.41;90.80;100229.19;7285732;19;151896;-52
2021/09/27 06:09:25;;;;;;;;;;;;;;;21.40;90.81;100212.66;7284857;19;152729;-51
2021/09/27 06:11:55;;;;;;;;;;;;;;;21.40;91.36;100213.47;7292477;19;152648;-52
2021/09/27 06:14:22;;;;;;;;;;;;;;;21.40;91.29;100201.41;7283668;19;152704;-53
2021/09/27 06:16:52;;;;;;;;;;;;;;;21.42;91.29;100196.28;7284912;19;153312;-52
2021/09/27 06:19:24;;;;;;;;;;;;;;;21.45;91.58;100195.63;7285129;19;152203;-53
2021/09/27 06:22:00;;;;;;;;;;;;;;;21.42;91.73;100185.88;7283985;19;153124;-52
2021/09/27 06:24:36;;;;;;;;;;;;;;;21.48;91.55;100180.91;7285300;19;153433;-53
2021/09/27 06:27:06;;;;;;;;;;;;;;;21.51;91.68;100174.63;7283964;19;152129;-53
2021/09/27 06:29:41;;;;;;;;;;;;;;;21.53;91.80;100166.69;7285682;19;152816;-52
2021/09/27 06:32:12;;;;;;;;;;;;;;;21.45;91.92;100157.09;7284000;19;153197;-53
2021/09/27 06:34:44;;;;;;;;;;;;;;;21.43;91.63;100150.16;7290027;19;151893;-53
2021/09/27 06:37:11;;;;;;;;;;;;;;;21.48;91.45;100142.41;7283358;19;154357;-52
2021/09/27 06:39:38;;;;;;;;;;;;;;;21.45;91.57;100131.81;7285509;19;151894;-52
2021/09/27 06:42:05;;;;;;;;;;;;;;;21.45;91.23;100137.41;7284180;19;151999;-52
2021/09/27 06:44:32;;;;;;;;;;;;;;;21.44;91.18;100129.34;7283587;19;154534;-52
2021/09/27 06:46:58;;;;;;;;;;;;;;;21.40;91.13;100122.72;7284742;19;151497;-52
2021/09/27 06:49:26;;;;;;;;;;;;;;;21.41;91.25;100108.34;7284989;19;152301;-55
2021/09/27 06:51:55;;;;;;;;;;;;;;;21.43;90.85;100122.06;7287943;19;153918;-52
2021/09/27 06:54:22;;;;;;;;;;;;;;;21.39;90.51;100102.25;7289872;19;151930;-52
2021/09/27 06:56:49;;;;;;;;;;;;;;;21.36;90.80;100108.50;7295961;19;153105;-52
2021/09/27 06:59:18;;;;;;;;;;;;;;;21.35;90.48;100108.88;7286748;19;151560;-52
2021/09/27 07:01:45;;;;;;;;;;;;;;;21.34;90.41;100094.00;7288063;19;152784;-52
2021/09/27 07:04:12;;;;;;;;;;;;;;;21.30;90.72;100093.81;7288060;19;154134;-52
2021/09/27 07:06:39;;;;;;;;;;;;;;;21.32;90.66;100092.66;7290304;19;151738;-52
2021/09/27 07:09:08;;;;;;;;;;;;;;;21.31;90.40;100091.84;7292200;19;152767;-52
2021/09/27 07:11:36;;;;;;;;;;;;;;;21.30;90.28;100093.00;7289887;19;153669;-52
2021/09/27 07:14:03;;;;;;;;;;;;;;;21.28;90.60;100087.72;7287485;19;151858;-52
2021/09/27 07:16:30;;;;;;;;;;;;;;;21.28;90.33;100087.72;7290793;19;152808;-52
2021/09/27 07:19:05;;;;;;;;;;;;;;;21.33;90.36;100069.84;7297081;19;152449;-52
2021/09/27 07:21:33;;;;;;;;;;;;;;;21.28;90.49;100089.69;7288264;19;152052;-52
2021/09/27 07:24:00;;;;;;;;;;;;;;;21.28;90.39;100098.97;7287116;19;153252;-52
2021/09/27 07:26:27;;;;;;;;;;;;;;;21.27;90.37;100085.22;7288043;19;152266;-52
2021/09/27 07:28:56;;;;;;;;;;;;;;;21.36;89.65;100071.97;7288402;19;153353;-52
2021/09/27 07:31:26;;;;;;;;;;;;;;;21.32;90.12;100075.81;7289060;19;153974;-52
2021/09/27 07:33:53;;;;;;;;;;;;;;;21.33;90.34;100083.91;7286812;19;151919;-60
2021/09/27 07:36:21;;;;;;;;;;;;;;;21.35;89.89;100081.56;7290025;19;153164;-52
2021/09/27 07:38:51;;;;;;;;;;;;;;;21.37;89.94;100089.66;7294880;19;153338;-52
2021/09/27 07:41:20;;;;;;;;;;;;;;;21.33;90.42;100092.34;7288642;19;152931;-52
2021/09/27 07:43:47;;;;;;;;;;;;;;;21.36;90.38;100082.41;7287092;19;154065;-53
2021/09/27 07:46:18;;;;;;;;;;;;;;;21.29;90.31;100088.53;7287992;19;151971;-53
2021/09/27 07:48:46;;;;;;;;;;;;;;;21.30;90.58;100098.63;7289464;19;153567;-52
2021/09/27 07:51:14;;;;;;;;;;;;;;;21.29;90.48;100096.97;7288025;19;152417;-53
2021/09/27 07:53:41;;;;;;;;;;;;;;;21.27;90.28;100096.47;7289323;19;151924;-52
2021/09/27 07:56:08;;;;;;;;;;;;;;;21.26;90.43;100098.44;7286682;19;152132;-52
2021/09/27 07:58:35;;;;;;;;;;;;;;;21.25;90.49;100115.66;7282325;19;153301;-52
2021/09/27 08:01:03;;;;;;;;;;;;;;;21.24;90.73;100108.38;7294477;19;151570;-53
2021/09/27 08:03:30;;;;;;;;;;;;;;;21.27;90.82;100110.53;7285106;19;153950;-52
2021/09/27 08:05:57;;;;;;;;;;;;;;;21.23;90.82;100115.16;7286758;19;151847;-53
2021/09/27 08:08:24;;;;;;;;;;;;;;;21.30;90.19;100213.84;7288786;19;153529;-52
2021/09/27 08:10:51;;;;;;;;;;;;;;;21.27;89.93;100217.28;7287086;19;153940;-53
2021/09/27 08:13:18;;;;;;;;;;;;;;;21.27;89.77;100206.03;7288883;19;151710;-52
2021/09/27 08:15:46;;;;;;;;;;;;;;;21.23;89.50;100210.69;7289148;19;152808;-52
2021/09/27 08:18:15;;;;;;;;;;;;;;;21.19;89.39;100215.31;7286340;19;154005;-52
2021/09/27 08:20:46;;;;;;;;;;;;;;;21.18;89.15;100236.13;7286936;19;152341;-52
2021/09/27 08:23:13;;;;;;;;;;;;;;;21.19;88.39;100233.00;7294077;19;152963;-52
2021/09/27 08:25:42;;;;;;;;;;;;;;;21.15;88.59;100254.50;7286366;19;151812;-52
2021/09/27 08:28:10;;;;;;;;;;;;;;;21.14;88.25;100254.81;7286991;19;153370;-52
2021/09/27 08:30:40;;;;;;;;;;;;;;;21.19;87.43;100283.56;7284931;19;153238;-52
2021/09/27 08:33:09;;;;;;;;;;;;;;;21.13;87.40;100276.44;7288662;19;151709;-52
2021/09/27 08:35:37;;;;;;;;;;;;;;;21.19;86.81;100271.50;7287915;19;152380;-52
2021/09/27 08:38:12;;;;;;;;;;;;;;;21.17;86.59;100285.03;7287537;19;153948;-52
2021/09/27 08:40:41;;;;;;;;;;;;;;;21.10;86.82;100296.75;7287809;19;151806;-53
2021/09/27 08:43:11;;;;;;;;;;;;;;;21.09;86.58;100302.69;7288253;19;153652;-52
2021/09/27 08:45:38;;;;;;;;;;;;;;;21.10;86.78;100322.03;7293976;19;152612;-52
2021/09/27 08:48:19;;;;;;;;;;;;;;;21.08;86.16;100334.72;7288308;19;152857;-52
2021/09/27 08:50:46;;;;;;;;;;;;;;;21.06;86.01;100329.47;7285038;19;153640;-52
2021/09/27 08:53:19;;;;;;;;;;;;;;;21.08;86.04;100352.41;7289091;19;152028;-53
2021/09/27 08:55:47;;;;;;;;;;;;;;;21.07;86.22;100364.81;7284766;19;151552;-53
2021/09/27 08:58:22;;;;;;;;;;;;;;;21.09;85.66;100370.09;7283648;19;154809;-52
2021/09/27 09:00:51;;;;;;;;;;;;;;;21.16;84.82;100378.94;7285453;19;151946;-53
2021/09/27 09:03:22;;;;;;;;;;;;;;;21.07;84.56;100400.50;7286514;19;152886;-52
2021/09/27 09:05:52;;;;;;;;;;;;;;;21.09;84.45;100401.81;7285974;19;152340;-53
2021/09/27 09:08:24;;;;;;;;;;;;;;;21.11;83.88;100412.75;7295918;19;151615;-52
2021/09/27 09:10:57;;;;;;;;;;;;;;;21.07;83.64;100420.19;7286322;19;153928;-52
2021/09/27 09:13:27;;;;;;;;;;;;;;;21.05;83.84;100420.50;7284220;19;151730;-52
2021/09/27 09:15:58;;;;;;;;;;;;;;;21.04;84.42;100437.66;7285401;19;152706;-52
2021/09/27 09:18:27;;;;;;;;;;;;;;;21.03;83.84;100438.84;7284913;19;153255;-52
2021/09/27 09:20:57;;;;;;;;;;;;;;;21.03;84.27;100456.50;7284736;19;152023;-53
2021/09/27 09:23:27;;;;;;;;;;;;;;;21.03;84.15;100455.69;7287025;19;153282;-52
2021/09/27 09:25:54;;;;;;;;;;;;;;;21.02;84.09;100474.50;7285640;19;153432;-52
2021/09/27 09:28:22;;;;;;;;;;;;;;;21.06;83.38;100471.88;7293177;19;151976;-52
2021/09/27 09:30:54;;;;;;;;;;;;;;;21.02;82.88;100493.34;7283254;19;153599;-53
2021/09/27 09:33:23;;;;;;;;;;;;;;;21.03;82.73;100501.44;7285818;19;151850;-52
2021/09/27 09:35:55;;;;;;;;;;;;;;;21.01;83.35;100508.53;7283118;19;151720;-52
2021/09/27 09:38:22;;;;;;;;;;;;;;;20.99;83.27;100517.28;7285772;19;152704;-53
2021/09/27 09:40:51;;;;;;;;;;;;;;;20.99;82.21;100522.06;7285688;19;151836;-52
2021/09/27 09:43:27;;;;;;;;;;;;;;;20.99;83.10;100531.31;7277324;19;153601;-52
2021/09/27 09:46:01;;;;;;;;;;;;;;;20.98;82.68;100538.09;7278323;19;153637;-52
2021/09/27 09:48:28;;;;;;;;;;;;;;;20.99;82.26;100545.34;7284423;19;151933;-53
2021/09/27 09:50:56;;;;;;;;;;;;;;;20.98;81.65;100548.50;7291184;19;152951;-52
2021/09/27 09:53:26;;;;;;;;;;;;;;;20.97;81.53;100563.69;7285181;19;151431;-52
2021/09/27 09:55:55;;;;;;;;;;;;;;;20.97;81.93;100574.94;7283275;19;153583;-52
2021/09/27 09:58:25;;;;;;;;;;;;;;;20.97;81.69;100589.81;7281824;19;153617;-52
2021/09/27 10:00:57;;;;;;;;;;;;;;;20.97;80.94;100608.63;7285020;19;152124;-52
2021/09/27 10:03:29;;;;;;;;;;;;;;;20.99;80.11;100607.16;7285689;19;153044;-52
2021/09/27 10:05:59;;;;;;;;;;;;;;;20.95;78.73;100616.53;7282663;19;152218;-52
2021/09/27 10:08:26;;;;;;;;;;;;;;;20.91;80.44;100621.97;7284790;19;152140;-52
2021/09/27 10:10:56;;;;;;;;;;;;;;;20.90;80.17;100625.91;7283653;19;153454;-53
2021/09/27 10:13:43;;;;;;;;;;;;;;;20.90;80.71;100613.84;7289813;19;153663;-52
2021/09/27 10:16:15;;;;;;;;;;;;;;;20.90;79.84;100633.50;7281344;19;152796;-52
2021/09/27 10:18:44;;;;;;;;;;;;;;;20.89;79.49;100643.94;7282611;19;152421;-53
2021/09/27 10:21:26;;;;;;;;;;;;;;;20.88;79.40;100639.47;7282329;19;152289;-52
2021/09/27 10:23:56;;;;;;;;;;;;;;;20.89;79.86;100655.16;7284503;19;152553;-53
2021/09/27 10:26:27;;;;;;;;;;;;;;;20.92;79.14;100659.31;7290980;19;154217;-52
2021/09/27 10:28:56;;;;;;;;;;;;;;;20.88;78.46;100666.72;7292432;19;151594;-53
2021/09/27 10:31:23;;;;;;;;;;;;;;;20.88;79.11;100667.53;7289834;19;153394;-52
2021/09/27 10:33:52;;;;;;;;;;;;;;;20.88;78.57;100690.00;7289557;19;152533;-53
2021/09/27 10:36:34;;;;;;;;;;;;;;;20.91;78.13;100692.19;7297273;19;151897;-52
2021/09/27 10:39:02;;;;;;;;;;;;;;;20.94;77.92;100697.16;7288708;19;154101;-52
2021/09/27 10:41:33;;;;;;;;;;;;;;;20.93;77.10;100698.31;7291164;19;151635;-52
2021/09/27 10:44:02;;;;;;;;;;;;;;;20.94;77.71;100701.97;7288972;19;152384;-52
2021/09/27 10:46:34;;;;;;;;;;;;;;;20.95;78.30;100712.84;7288546;19;156575;-53
2021/09/27 10:49:02;;;;;;;;;;;;;;;21.04;77.95;100716.56;7289739;19;151862;-52
2021/09/27 10:51:34;;;;;;;;;;;;;;;20.97;77.08;100726.59;7291666;19;153721;-52
2021/09/27 10:54:06;;;;;;;;;;;;;;;20.94;76.88;100730.06;7288891;19;153879;-52
2021/09/27 10:56:35;;;;;;;;;;;;;;;20.97;77.13;100737.84;7288795;19;152049;-52
2021/09/27 10:59:04;;;;;;;;;;;;;;;20.95;76.65;100746.56;7294843;19;152553;-52
2021/09/27 11:01:34;;;;;;;;;;;;;;;21.00;77.68;100751.22;7290264;19;151976;-53
2021/09/27 11:04:04;;;;;;;;;;;;;;;20.99;77.57;100758.81;7291400;19;152967;-51
2021/09/27 11:06:37;;;;;;;;;;;;;;;21.01;77.42;100761.31;7288342;19;153300;-52
2021/09/27 11:09:08;;;;;;;;;;;;;;;21.00;76.73;100766.13;7291710;19;152009;-52
2021/09/27 11:11:37;;;;;;;;;;;;;;;21.03;75.38;100781.53;7288865;19;152637;-52
2021/09/27 11:14:06;;;;;;;;;;;;;;;21.00;74.99;100779.31;7289749;19;153265;-52
2021/09/27 11:16:35;;;;;;;;;;;;;;;21.02;75.16;100779.84;7286825;19;152344;-52
2021/09/27 11:19:06;;;;;;;;;;;;;;;21.05;76.23;100787.63;7289186;19;153310;-52
2021/09/27 11:21:41;;;;;;;;;;;;;;;21.06;75.50;100783.69;7295367;19;153661;-52
2021/09/27 11:24:24;;;;;;;;;;;;;;;21.06;75.71;100783.69;7288111;19;153359;-52
2021/09/27 11:26:51;;;;;;;;;;;;;;;21.05;74.32;100801.69;7287463;19;154038;-52
2021/09/27 11:29:28;;;;;;;;;;;;;;;21.06;74.34;100792.94;7288641;19;151845;-52
2021/09/27 11:31:58;;;;;;;;;;;;;;;20.99;74.19;100795.34;7287988;19;153675;-52
2021/09/27 11:34:30;;;;;;;;;;;;;;;21.05;73.92;100801.69;7288671;19;153790;-52
2021/09/27 11:37:00;;;;;;;;;;;;;;;20.99;73.83;100815.00;7288478;19;151939;-52
2021/09/27 11:39:32;;;;;;;;;;;;;;;20.97;73.47;100813.66;7288935;19;152682;-52
2021/09/27 11:42:02;;;;;;;;;;;;;;;20.95;74.60;100819.59;7295770;19;152961;-52
2021/09/27 11:44:31;;;;;;;;;;;;;;;20.95;74.68;100830.00;7288169;19;153286;-52
2021/09/27 11:47:05;;;;;;;;;;;;;;;20.94;74.82;100834.78;7282171;19;153942;-52
2021/09/27 11:49:38;;;;;;;;;;;;;;;20.96;73.89;100834.47;7288583;19;151947;-52
2021/09/27 11:52:09;;;;;;;;;;;;;;;20.92;74.32;100839.06;7286808;19;154033;-52
2021/09/27 11:54:39;;;;;;;;;;;;;;;20.92;74.47;100834.28;7288107;19;153237;-52
2021/09/27 11:57:11;;;;;;;;;;;;;;;20.91;74.05;100848.63;7287837;19;152434;-52
2021/09/27 11:59:43;;;;;;;;;;;;;;;20.90;73.74;100836.53;7287303;19;153351;-52
2021/09/27 12:02:19;;;;;;;;;;;;;;;20.90;73.79;100847.78;7283389;19;153745;-52
2021/09/27 12:05:06;;;;;;;;;;;;;;;20.89;73.96;100850.94;7294465;19;152314;-52
2021/09/27 12:07:38;;;;;;;;;;;;;;;20.86;73.26;100860.78;7286979;19;153752;-52
2021/09/27 12:10:07;;;;;;;;;;;;;;;20.86;74.03;100872.03;7287934;19;152057;-52
2021/09/27 12:12:40;;;;;;;;;;;;;;;20.83;74.09;100890.34;7288079;19;152842;-52
2021/09/27 12:15:07;;;;;;;;;;;;;;;20.84;73.14;100897.63;7284333;19;153734;-52
2021/09/27 12:17:36;;;;;;;;;;;;;;;20.83;74.32;100912.81;7289188;19;151990;-53
2021/09/27 12:20:06;;;;;;;;;;;;;;;20.83;74.93;100903.53;7285009;19;152600;-52
2021/09/27 12:22:35;;;;;;;;;;;;;;;20.82;75.26;100902.72;7285399;19;153338;-52
2021/09/27 12:25:07;;;;;;;;;;;;;;;20.81;75.65;100898.22;7284017;19;153050;-52
2021/09/27 12:27:33;;;;;;;;;;;;;;;20.82;75.50;100908.31;7291617;19;153630;-52
2021/09/27 12:30:03;;;;;;;;;;;;;;;20.82;75.41;100916.75;7285841;19;151801;-52
2021/09/27 12:32:34;;;;;;;;;;;;;;;20.82;74.73;100899.91;7288183;19;153129;-52
2021/09/27 12:35:04;;;;;;;;;;;;;;;20.89;74.99;100899.50;7284951;19;152371;-52
2021/09/27 12:37:35;;;;;;;;;;;;;;;20.95;75.61;100889.81;7285176;19;151892;-52
2021/09/27 12:40:03;;;;;;;;;;;;;;;20.95;75.76;100906.66;7285384;19;152571;-53
2021/09/27 12:42:37;;;;;;;;;;;;;;;20.99;75.65;100913.31;7280601;19;154063;-51
2021/09/27 12:45:06;;;;;;;;;;;;;;;21.03;76.06;100908.72;7285606;19;151839;-52
2021/09/27 12:47:33;;;;;;;;;;;;;;;21.05;75.72;100911.25;7280453;19;153590;-52